SLAYR40 KILM-KCHS
Flight info
| Callsign | SLAYR40 |
|---|---|
| Flight time | 1h 15m |
| Altitude | 4000 |
| Route | KILM DCT KCHS |
| Aircraft | H60/L-VD/C |
Departure
| Time | 2026-05-07 00:04 |
|---|---|
| Airport | Wilmington International Airport (KILM) |
Arrival
| Time | 2026-05-07 01:19 |
|---|---|
| Airport | Charleston International Airport (KCHS) |
| Time | Latitude | Longitude | Altitude | Speed | Heading |
|---|---|---|---|---|---|
| 2026-05-06 23:45 | 34.27062 | -77.90959 | 36 ft | 0 kts | 99° |
| 2026-05-07 00:03 | 34.27062 | -77.90957 | 37 ft | 2 kts | 98° |
| 2026-05-07 00:03 | 34.27063 | -77.90940 | 52 ft | 2 kts | 69° |
| 2026-05-07 00:03 | 34.27064 | -77.90943 | 74 ft | 7 kts | 254° |
| 2026-05-07 00:04 | 34.27007 | -77.91104 | 285 ft | 35 kts | 248° |
| 2026-05-07 00:04 | 34.26864 | -77.91479 | 537 ft | 64 kts | 244° |
| 2026-05-07 00:04 | 34.26584 | -77.92003 | 695 ft | 85 kts | 232° |
| 2026-05-07 00:04 | 34.26050 | -77.92446 | 765 ft | 100 kts | 205° |
| 2026-05-07 00:05 | 34.25387 | -77.92710 | 911 ft | 102 kts | 196° |
| 2026-05-07 00:05 | 34.24665 | -77.92756 | 1006 ft | 107 kts | 182° |
| 2026-05-07 00:05 | 34.23924 | -77.92705 | 1140 ft | 105 kts | 182° |
| 2026-05-07 00:05 | 34.23197 | -77.92651 | 1312 ft | 102 kts | 191° |
| 2026-05-07 00:06 | 34.22585 | -77.93083 | 1243 ft | 107 kts | 227° |
| 2026-05-07 00:06 | 34.22251 | -77.93860 | 1462 ft | 110 kts | 246° |
| 2026-05-07 00:06 | 34.22048 | -77.94771 | 1637 ft | 115 kts | 248° |
| 2026-05-07 00:06 | 34.21890 | -77.95715 | 1737 ft | 116 kts | 261° |
| 2026-05-07 00:07 | 34.21892 | -77.96669 | 2115 ft | 107 kts | 262° |
| 2026-05-07 00:07 | 34.21901 | -77.97584 | 2285 ft | 112 kts | 262° |
| 2026-05-07 00:07 | 34.21843 | -77.98545 | 2271 ft | 114 kts | 258° |
| 2026-05-07 00:07 | 34.21785 | -77.99484 | 2436 ft | 112 kts | 261° |
| 2026-05-07 00:08 | 34.21758 | -78.00438 | 2592 ft | 114 kts | 263° |
| 2026-05-07 00:08 | 34.21742 | -78.01412 | 2682 ft | 118 kts | 262° |
| 2026-05-07 00:08 | 34.21347 | -78.02248 | 2511 ft | 122 kts | 217° |
| 2026-05-07 00:08 | 34.20497 | -78.02342 | 2576 ft | 128 kts | 179° |
| 2026-05-07 00:09 | 34.19666 | -78.02152 | 2818 ft | 119 kts | 180° |
| 2026-05-07 00:09 | 34.18863 | -78.02069 | 3043 ft | 111 kts | 198° |
| 2026-05-07 00:09 | 34.18208 | -78.02623 | 2916 ft | 123 kts | 223° |
| 2026-05-07 00:09 | 34.17548 | -78.03282 | 3112 ft | 121 kts | 223° |
| 2026-05-07 00:10 | 34.16921 | -78.03900 | 3569 ft | 112 kts | 224° |
| 2026-05-07 00:10 | 34.16338 | -78.04489 | 3996 ft | 110 kts | 226° |
| 2026-05-07 00:10 | 34.15748 | -78.05090 | 3983 ft | 110 kts | 226° |
| 2026-05-07 00:10 | 34.15162 | -78.05692 | 4000 ft | 111 kts | 226° |
| 2026-05-07 00:11 | 34.14572 | -78.06307 | 4001 ft | 113 kts | 226° |
| 2026-05-07 00:11 | 34.13975 | -78.06941 | 4003 ft | 114 kts | 226° |
| 2026-05-07 00:11 | 34.13379 | -78.07571 | 4004 ft | 114 kts | 226° |
| 2026-05-07 00:11 | 34.12797 | -78.08198 | 4010 ft | 113 kts | 226° |
| 2026-05-07 00:12 | 34.12224 | -78.08820 | 4009 ft | 112 kts | 226° |
| 2026-05-07 00:12 | 34.11633 | -78.09460 | 4010 ft | 114 kts | 226° |
| 2026-05-07 00:12 | 34.11049 | -78.10069 | 4010 ft | 113 kts | 226° |
| 2026-05-07 00:12 | 34.10450 | -78.10688 | 4011 ft | 112 kts | 226° |
| 2026-05-07 00:13 | 34.09868 | -78.11314 | 4012 ft | 113 kts | 226° |
| 2026-05-07 00:13 | 34.09278 | -78.11948 | 4011 ft | 115 kts | 226° |
| 2026-05-07 00:13 | 34.08687 | -78.12586 | 4012 ft | 114 kts | 226° |
| 2026-05-07 00:13 | 34.08101 | -78.13228 | 4012 ft | 112 kts | 226° |
| 2026-05-07 00:14 | 34.07518 | -78.13853 | 4014 ft | 112 kts | 226° |
| 2026-05-07 00:14 | 34.06933 | -78.14480 | 4013 ft | 112 kts | 226° |
| 2026-05-07 00:14 | 34.06344 | -78.15112 | 4012 ft | 115 kts | 226° |
| 2026-05-07 00:14 | 34.05749 | -78.15756 | 4012 ft | 115 kts | 226° |
| 2026-05-07 00:15 | 34.05169 | -78.16389 | 4013 ft | 113 kts | 226° |
| 2026-05-07 00:15 | 34.04588 | -78.17020 | 4013 ft | 112 kts | 226° |
| 2026-05-07 00:15 | 34.04003 | -78.17648 | 4014 ft | 112 kts | 226° |
| 2026-05-07 00:15 | 34.03414 | -78.18272 | 4013 ft | 113 kts | 226° |
| 2026-05-07 00:16 | 34.02827 | -78.18904 | 4012 ft | 114 kts | 226° |
| 2026-05-07 00:16 | 34.02236 | -78.19543 | 4013 ft | 115 kts | 226° |
| 2026-05-07 00:16 | 34.01652 | -78.20187 | 4013 ft | 113 kts | 226° |
| 2026-05-07 00:16 | 34.01074 | -78.20806 | 4013 ft | 112 kts | 226° |
| 2026-05-07 00:17 | 34.00492 | -78.21437 | 4014 ft | 113 kts | 226° |
| 2026-05-07 00:17 | 33.99910 | -78.22074 | 4012 ft | 113 kts | 226° |
| 2026-05-07 00:17 | 33.99324 | -78.22707 | 4011 ft | 112 kts | 226° |
| 2026-05-07 00:17 | 33.98739 | -78.23335 | 4012 ft | 112 kts | 226° |
| 2026-05-07 00:18 | 33.98163 | -78.23963 | 4013 ft | 112 kts | 226° |
| 2026-05-07 00:18 | 33.97585 | -78.24599 | 4013 ft | 112 kts | 226° |
| 2026-05-07 00:18 | 33.97002 | -78.25241 | 4012 ft | 114 kts | 226° |
| 2026-05-07 00:18 | 33.96419 | -78.25875 | 4016 ft | 112 kts | 226° |
| 2026-05-07 00:19 | 33.95839 | -78.26500 | 4015 ft | 111 kts | 226° |
| 2026-05-07 00:19 | 33.95262 | -78.27128 | 4014 ft | 112 kts | 226° |
| 2026-05-07 00:19 | 33.94689 | -78.27755 | 4014 ft | 113 kts | 226° |
| 2026-05-07 00:19 | 33.94111 | -78.28386 | 4014 ft | 113 kts | 226° |
| 2026-05-07 00:20 | 33.93532 | -78.29025 | 4014 ft | 112 kts | 226° |
| 2026-05-07 00:20 | 33.92952 | -78.29655 | 4015 ft | 112 kts | 226° |
| 2026-05-07 00:20 | 33.92376 | -78.30284 | 4015 ft | 112 kts | 226° |
| 2026-05-07 00:20 | 33.91792 | -78.30911 | 4013 ft | 113 kts | 226° |
| 2026-05-07 00:21 | 33.91208 | -78.31535 | 4008 ft | 112 kts | 226° |
| 2026-05-07 00:21 | 33.90626 | -78.32163 | 4014 ft | 113 kts | 226° |
| 2026-05-07 00:21 | 33.90041 | -78.32794 | 4014 ft | 112 kts | 226° |
| 2026-05-07 00:21 | 33.89461 | -78.33426 | 4016 ft | 112 kts | 226° |
| 2026-05-07 00:22 | 33.88881 | -78.34061 | 4016 ft | 114 kts | 226° |
| 2026-05-07 00:22 | 33.88290 | -78.34692 | 4016 ft | 113 kts | 226° |
| 2026-05-07 00:22 | 33.87711 | -78.35318 | 4016 ft | 113 kts | 226° |
| 2026-05-07 00:22 | 33.87130 | -78.35959 | 4015 ft | 112 kts | 226° |
| 2026-05-07 00:23 | 33.86545 | -78.36591 | 4018 ft | 113 kts | 226° |
| 2026-05-07 00:23 | 33.85956 | -78.37223 | 4017 ft | 113 kts | 226° |
| 2026-05-07 00:23 | 33.85368 | -78.37850 | 4018 ft | 112 kts | 226° |
| 2026-05-07 00:23 | 33.84787 | -78.38468 | 4017 ft | 112 kts | 226° |
| 2026-05-07 00:24 | 33.84197 | -78.39092 | 4017 ft | 113 kts | 226° |
| 2026-05-07 00:24 | 33.83615 | -78.39720 | 4014 ft | 113 kts | 226° |
| 2026-05-07 00:24 | 33.83035 | -78.40347 | 4015 ft | 111 kts | 226° |
| 2026-05-07 00:24 | 33.82467 | -78.40966 | 4014 ft | 112 kts | 226° |
| 2026-05-07 00:25 | 33.81893 | -78.41588 | 4013 ft | 112 kts | 226° |
| 2026-05-07 00:25 | 33.81305 | -78.42213 | 4011 ft | 113 kts | 226° |
| 2026-05-07 00:25 | 33.80719 | -78.42841 | 4014 ft | 112 kts | 226° |
| 2026-05-07 00:25 | 33.80126 | -78.43462 | 4012 ft | 113 kts | 226° |
| 2026-05-07 00:26 | 33.79531 | -78.44084 | 4014 ft | 114 kts | 226° |
| 2026-05-07 00:26 | 33.78943 | -78.44718 | 4011 ft | 114 kts | 226° |
| 2026-05-07 00:26 | 33.78358 | -78.45349 | 4010 ft | 113 kts | 226° |
| 2026-05-07 00:26 | 33.77765 | -78.45970 | 4011 ft | 112 kts | 226° |
| 2026-05-07 00:27 | 33.77179 | -78.46597 | 4013 ft | 113 kts | 226° |
| 2026-05-07 00:27 | 33.76607 | -78.47244 | 4013 ft | 114 kts | 229° |
| 2026-05-07 00:27 | 33.76044 | -78.47916 | 4014 ft | 113 kts | 229° |
| 2026-05-07 00:27 | 33.75487 | -78.48582 | 4012 ft | 112 kts | 229° |
| 2026-05-07 00:28 | 33.74941 | -78.49250 | 4022 ft | 111 kts | 229° |
| 2026-05-07 00:28 | 33.74404 | -78.49909 | 4021 ft | 112 kts | 229° |
| 2026-05-07 00:28 | 33.73850 | -78.50559 | 4019 ft | 112 kts | 229° |
| 2026-05-07 00:28 | 33.73289 | -78.51220 | 4021 ft | 112 kts | 229° |
| 2026-05-07 00:29 | 33.72729 | -78.51882 | 4022 ft | 112 kts | 229° |
| 2026-05-07 00:29 | 33.72176 | -78.52553 | 4020 ft | 112 kts | 229° |
| 2026-05-07 00:30 | 33.70514 | -78.54592 | 4021 ft | 116 kts | 232° |
| 2026-05-07 00:30 | 33.70021 | -78.55322 | 4031 ft | 113 kts | 234° |
| 2026-05-07 00:30 | 33.69512 | -78.56046 | 4026 ft | 114 kts | 234° |
| 2026-05-07 00:30 | 33.69006 | -78.56773 | 4025 ft | 114 kts | 234° |
| 2026-05-07 00:31 | 33.68511 | -78.57501 | 4021 ft | 112 kts | 234° |
| 2026-05-07 00:31 | 33.68016 | -78.58230 | 4017 ft | 115 kts | 234° |
| 2026-05-07 00:31 | 33.67513 | -78.58970 | 4033 ft | 114 kts | 234° |
| 2026-05-07 00:31 | 33.67024 | -78.59688 | 4021 ft | 111 kts | 234° |
| 2026-05-07 00:32 | 33.66533 | -78.60408 | 4022 ft | 111 kts | 234° |
| 2026-05-07 00:32 | 33.66041 | -78.61128 | 4023 ft | 112 kts | 234° |
| 2026-05-07 00:32 | 33.65550 | -78.61855 | 4026 ft | 114 kts | 234° |
| 2026-05-07 00:32 | 33.65052 | -78.62602 | 4022 ft | 113 kts | 234° |
| 2026-05-07 00:33 | 33.64562 | -78.63326 | 4022 ft | 112 kts | 234° |
| 2026-05-07 00:33 | 33.64072 | -78.64049 | 4022 ft | 112 kts | 234° |
| 2026-05-07 00:33 | 33.63573 | -78.64782 | 4021 ft | 113 kts | 234° |
| 2026-05-07 00:33 | 33.63078 | -78.65507 | 4027 ft | 112 kts | 234° |
| 2026-05-07 00:34 | 33.62583 | -78.66238 | 4022 ft | 112 kts | 234° |
| 2026-05-07 00:34 | 33.62261 | -78.66718 | 4024 ft | 111 kts | 234° |
| 2026-05-07 00:34 | 33.61773 | -78.67439 | 4024 ft | 110 kts | 234° |
| 2026-05-07 00:34 | 33.61282 | -78.68169 | 4029 ft | 112 kts | 234° |
| 2026-05-07 00:35 | 33.60801 | -78.68898 | 4023 ft | 114 kts | 234° |
| 2026-05-07 00:35 | 33.60303 | -78.69633 | 4020 ft | 114 kts | 234° |
| 2026-05-07 00:35 | 33.59806 | -78.70352 | 4023 ft | 111 kts | 234° |
| 2026-05-07 00:35 | 33.59310 | -78.71073 | 4024 ft | 112 kts | 234° |
| 2026-05-07 00:36 | 33.58811 | -78.71796 | 4022 ft | 113 kts | 234° |
| 2026-05-07 00:36 | 33.58306 | -78.72523 | 4024 ft | 113 kts | 234° |
| 2026-05-07 00:36 | 33.57802 | -78.73248 | 4023 ft | 112 kts | 234° |
| 2026-05-07 00:36 | 33.57303 | -78.73966 | 4021 ft | 112 kts | 234° |
| 2026-05-07 00:37 | 33.56798 | -78.74691 | 4022 ft | 112 kts | 234° |
| 2026-05-07 00:37 | 33.56296 | -78.75412 | 4025 ft | 113 kts | 234° |
| 2026-05-07 00:37 | 33.55795 | -78.76142 | 4029 ft | 114 kts | 234° |
| 2026-05-07 00:37 | 33.55286 | -78.76874 | 4028 ft | 115 kts | 234° |
| 2026-05-07 00:38 | 33.54771 | -78.77593 | 4024 ft | 114 kts | 234° |
| 2026-05-07 00:38 | 33.54257 | -78.78302 | 4029 ft | 111 kts | 234° |
| 2026-05-07 00:38 | 33.53756 | -78.79013 | 4030 ft | 113 kts | 234° |
| 2026-05-07 00:38 | 33.53249 | -78.79733 | 4026 ft | 115 kts | 234° |
| 2026-05-07 00:39 | 33.52737 | -78.80456 | 4027 ft | 112 kts | 234° |
| 2026-05-07 00:39 | 33.52238 | -78.81163 | 4026 ft | 112 kts | 234° |
| 2026-05-07 00:39 | 33.51737 | -78.81877 | 4025 ft | 111 kts | 234° |
| 2026-05-07 00:39 | 33.51234 | -78.82590 | 4026 ft | 114 kts | 234° |
| 2026-05-07 00:40 | 33.50724 | -78.83306 | 4028 ft | 113 kts | 234° |
| 2026-05-07 00:40 | 33.50216 | -78.84027 | 4029 ft | 111 kts | 234° |
| 2026-05-07 00:40 | 33.49715 | -78.84743 | 4028 ft | 113 kts | 234° |
| 2026-05-07 00:40 | 33.49211 | -78.85476 | 4028 ft | 114 kts | 234° |
| 2026-05-07 00:41 | 33.48706 | -78.86202 | 4029 ft | 112 kts | 234° |
| 2026-05-07 00:41 | 33.48202 | -78.86927 | 4030 ft | 113 kts | 234° |
| 2026-05-07 00:41 | 33.47697 | -78.87662 | 4030 ft | 115 kts | 234° |
| 2026-05-07 00:41 | 33.47203 | -78.88375 | 4029 ft | 112 kts | 234° |
| 2026-05-07 00:42 | 33.46703 | -78.89094 | 4027 ft | 112 kts | 234° |
| 2026-05-07 00:42 | 33.46201 | -78.89819 | 4029 ft | 113 kts | 234° |
| 2026-05-07 00:42 | 33.45700 | -78.90558 | 4028 ft | 115 kts | 234° |
| 2026-05-07 00:42 | 33.45196 | -78.91297 | 4032 ft | 115 kts | 234° |
| 2026-05-07 00:43 | 33.44693 | -78.92022 | 4027 ft | 113 kts | 234° |
| 2026-05-07 00:43 | 33.44193 | -78.92759 | 4022 ft | 115 kts | 234° |
| 2026-05-07 00:43 | 33.43682 | -78.93502 | 4027 ft | 114 kts | 234° |
| 2026-05-07 00:43 | 33.43177 | -78.94230 | 4026 ft | 112 kts | 234° |
| 2026-05-07 00:44 | 33.42682 | -78.94947 | 4029 ft | 114 kts | 234° |
| 2026-05-07 00:44 | 33.42176 | -78.95682 | 4028 ft | 115 kts | 234° |
| 2026-05-07 00:44 | 33.41668 | -78.96420 | 4021 ft | 114 kts | 234° |
| 2026-05-07 00:44 | 33.41164 | -78.97149 | 4029 ft | 114 kts | 234° |
| 2026-05-07 00:45 | 33.40661 | -78.97877 | 4027 ft | 113 kts | 234° |
| 2026-05-07 00:45 | 33.40150 | -78.98605 | 4024 ft | 115 kts | 234° |
| 2026-05-07 00:45 | 33.39639 | -78.99335 | 4027 ft | 114 kts | 234° |
| 2026-05-07 00:45 | 33.39126 | -79.00063 | 4024 ft | 115 kts | 234° |
| 2026-05-07 00:46 | 33.38610 | -79.00783 | 4027 ft | 115 kts | 234° |
| 2026-05-07 00:46 | 33.38091 | -79.01511 | 4027 ft | 114 kts | 234° |
| 2026-05-07 00:46 | 33.37583 | -79.02238 | 4031 ft | 114 kts | 234° |
| 2026-05-07 00:46 | 33.37070 | -79.02965 | 4028 ft | 115 kts | 234° |
| 2026-05-07 00:47 | 33.36548 | -79.03696 | 4032 ft | 115 kts | 234° |
| 2026-05-07 00:47 | 33.36038 | -79.04423 | 4027 ft | 114 kts | 234° |
| 2026-05-07 00:47 | 33.35526 | -79.05144 | 4031 ft | 114 kts | 234° |
| 2026-05-07 00:47 | 33.35009 | -79.05862 | 4037 ft | 114 kts | 234° |
| 2026-05-07 00:48 | 33.34488 | -79.06586 | 4024 ft | 114 kts | 234° |
| 2026-05-07 00:48 | 33.33966 | -79.07309 | 4029 ft | 114 kts | 234° |
| 2026-05-07 00:48 | 33.33450 | -79.08027 | 4029 ft | 114 kts | 234° |
| 2026-05-07 00:48 | 33.32933 | -79.08753 | 4026 ft | 113 kts | 234° |
| 2026-05-07 00:49 | 33.32420 | -79.09472 | 4025 ft | 114 kts | 234° |
| 2026-05-07 00:49 | 33.31904 | -79.10192 | 4025 ft | 114 kts | 234° |
| 2026-05-07 00:49 | 33.31387 | -79.10915 | 4028 ft | 114 kts | 234° |
| 2026-05-07 00:49 | 33.30869 | -79.11638 | 4035 ft | 115 kts | 234° |
| 2026-05-07 00:50 | 33.30354 | -79.12356 | 4032 ft | 115 kts | 234° |
| 2026-05-07 00:50 | 33.29837 | -79.13082 | 4029 ft | 114 kts | 234° |
| 2026-05-07 00:50 | 33.29320 | -79.13817 | 4029 ft | 116 kts | 234° |
| 2026-05-07 00:50 | 33.28806 | -79.14558 | 4027 ft | 116 kts | 234° |
| 2026-05-07 00:51 | 33.28298 | -79.15295 | 4029 ft | 113 kts | 234° |
| 2026-05-07 00:51 | 33.27790 | -79.16019 | 4034 ft | 114 kts | 234° |
| 2026-05-07 00:51 | 33.27272 | -79.16752 | 4027 ft | 116 kts | 234° |
| 2026-05-07 00:51 | 33.26756 | -79.17493 | 4029 ft | 115 kts | 234° |
| 2026-05-07 00:52 | 33.26252 | -79.18221 | 4030 ft | 114 kts | 234° |
| 2026-05-07 00:52 | 33.25749 | -79.18951 | 4031 ft | 114 kts | 234° |
| 2026-05-07 00:52 | 33.25240 | -79.19688 | 4031 ft | 114 kts | 234° |
| 2026-05-07 00:52 | 33.24730 | -79.20422 | 4038 ft | 116 kts | 234° |
| 2026-05-07 00:53 | 33.24225 | -79.21150 | 4026 ft | 114 kts | 234° |
| 2026-05-07 00:53 | 33.23712 | -79.21877 | 4035 ft | 114 kts | 234° |
| 2026-05-07 00:53 | 33.23194 | -79.22605 | 4032 ft | 115 kts | 234° |
| 2026-05-07 00:53 | 33.22689 | -79.23331 | 4031 ft | 114 kts | 234° |
| 2026-05-07 00:54 | 33.22194 | -79.24050 | 4028 ft | 113 kts | 234° |
| 2026-05-07 00:54 | 33.21679 | -79.24774 | 4028 ft | 115 kts | 234° |
| 2026-05-07 00:54 | 33.21200 | -79.25539 | 4039 ft | 113 kts | 239° |
| 2026-05-07 00:54 | 33.20740 | -79.26322 | 4030 ft | 113 kts | 239° |
| 2026-05-07 00:55 | 33.20282 | -79.27094 | 4030 ft | 115 kts | 239° |
| 2026-05-07 00:55 | 33.19824 | -79.27872 | 4029 ft | 115 kts | 239° |
| 2026-05-07 00:55 | 33.19362 | -79.28651 | 4029 ft | 113 kts | 239° |
| 2026-05-07 00:55 | 33.18910 | -79.29422 | 4030 ft | 113 kts | 239° |
| 2026-05-07 00:56 | 33.18460 | -79.30189 | 4031 ft | 113 kts | 239° |
| 2026-05-07 00:56 | 33.18004 | -79.30968 | 4031 ft | 115 kts | 239° |
| 2026-05-07 00:56 | 33.17553 | -79.31732 | 4029 ft | 115 kts | 239° |
| 2026-05-07 00:56 | 33.17092 | -79.32499 | 4030 ft | 113 kts | 239° |
| 2026-05-07 00:57 | 33.16635 | -79.33266 | 4029 ft | 113 kts | 239° |
| 2026-05-07 00:57 | 33.16171 | -79.34031 | 4029 ft | 115 kts | 239° |
| 2026-05-07 00:57 | 33.15709 | -79.34798 | 4029 ft | 113 kts | 239° |
| 2026-05-07 00:57 | 33.15250 | -79.35572 | 4028 ft | 112 kts | 239° |
| 2026-05-07 00:58 | 33.14786 | -79.36331 | 4032 ft | 114 kts | 239° |
| 2026-05-07 00:58 | 33.14323 | -79.37094 | 4029 ft | 114 kts | 239° |
| 2026-05-07 00:58 | 33.13858 | -79.37874 | 4029 ft | 116 kts | 239° |
| 2026-05-07 00:58 | 33.13397 | -79.38643 | 4029 ft | 113 kts | 239° |
| 2026-05-07 00:59 | 33.12461 | -79.40160 | 4030 ft | 114 kts | 239° |
| 2026-05-07 00:59 | 33.12001 | -79.40941 | 4025 ft | 115 kts | 239° |
| 2026-05-07 00:59 | 33.11541 | -79.41722 | 4028 ft | 116 kts | 239° |
| 2026-05-07 01:00 | 33.11077 | -79.42498 | 4032 ft | 115 kts | 239° |
| 2026-05-07 01:00 | 33.10612 | -79.43272 | 4028 ft | 114 kts | 239° |
| 2026-05-07 01:00 | 33.10153 | -79.44047 | 4028 ft | 115 kts | 239° |
| 2026-05-07 01:00 | 33.09701 | -79.44818 | 4025 ft | 113 kts | 239° |
| 2026-05-07 01:01 | 33.09250 | -79.45582 | 4023 ft | 113 kts | 239° |
| 2026-05-07 01:01 | 33.08792 | -79.46349 | 4026 ft | 114 kts | 239° |
| 2026-05-07 01:01 | 33.08330 | -79.47125 | 4021 ft | 115 kts | 239° |
| 2026-05-07 01:01 | 33.07875 | -79.47901 | 4023 ft | 113 kts | 239° |
| 2026-05-07 01:02 | 33.07415 | -79.48670 | 4022 ft | 115 kts | 239° |
| 2026-05-07 01:02 | 33.06950 | -79.49452 | 4026 ft | 116 kts | 239° |
| 2026-05-07 01:02 | 33.06497 | -79.50232 | 4022 ft | 114 kts | 239° |
| 2026-05-07 01:02 | 33.06047 | -79.51009 | 4021 ft | 114 kts | 239° |
| 2026-05-07 01:03 | 33.05595 | -79.51787 | 4020 ft | 115 kts | 239° |
| 2026-05-07 01:03 | 33.05145 | -79.52575 | 4022 ft | 115 kts | 239° |
| 2026-05-07 01:03 | 33.04705 | -79.53348 | 4019 ft | 114 kts | 239° |
| 2026-05-07 01:03 | 33.04251 | -79.54124 | 4020 ft | 114 kts | 239° |
| 2026-05-07 01:04 | 33.03804 | -79.54905 | 4023 ft | 115 kts | 244° |
| 2026-05-07 01:04 | 33.03416 | -79.55733 | 4025 ft | 112 kts | 245° |
| 2026-05-07 01:04 | 33.03050 | -79.56563 | 4017 ft | 114 kts | 245° |
| 2026-05-07 01:04 | 33.02682 | -79.57395 | 4019 ft | 114 kts | 251° |
| 2026-05-07 01:05 | 33.02403 | -79.58257 | 4013 ft | 111 kts | 251° |
| 2026-05-07 01:05 | 33.02143 | -79.59138 | 4017 ft | 114 kts | 251° |
| 2026-05-07 01:05 | 33.01868 | -79.60030 | 4017 ft | 116 kts | 251° |
| 2026-05-07 01:05 | 33.01593 | -79.60939 | 4021 ft | 117 kts | 252° |
| 2026-05-07 01:06 | 33.01312 | -79.61813 | 4017 ft | 113 kts | 252° |
| 2026-05-07 01:06 | 33.01024 | -79.62688 | 4016 ft | 113 kts | 252° |
| 2026-05-07 01:06 | 33.00744 | -79.63559 | 4025 ft | 113 kts | 251° |
| 2026-05-07 01:06 | 33.00472 | -79.64444 | 4016 ft | 113 kts | 252° |
| 2026-05-07 01:07 | 33.00200 | -79.65333 | 4017 ft | 114 kts | 252° |
| 2026-05-07 01:07 | 32.99924 | -79.66211 | 4017 ft | 114 kts | 252° |
| 2026-05-07 01:07 | 32.99638 | -79.67084 | 4017 ft | 114 kts | 252° |
| 2026-05-07 01:07 | 32.99354 | -79.67970 | 4016 ft | 115 kts | 251° |
| 2026-05-07 01:08 | 32.99081 | -79.68859 | 4030 ft | 114 kts | 252° |
| 2026-05-07 01:08 | 32.98798 | -79.69746 | 4033 ft | 114 kts | 252° |
| 2026-05-07 01:08 | 32.98513 | -79.70617 | 4034 ft | 113 kts | 251° |
| 2026-05-07 01:08 | 32.98260 | -79.71511 | 4029 ft | 115 kts | 256° |
| 2026-05-07 01:09 | 32.98058 | -79.72402 | 4025 ft | 112 kts | 256° |
| 2026-05-07 01:09 | 32.97853 | -79.73305 | 4028 ft | 113 kts | 256° |
| 2026-05-07 01:09 | 32.97644 | -79.74205 | 4033 ft | 112 kts | 256° |
| 2026-05-07 01:09 | 32.97432 | -79.75098 | 4034 ft | 113 kts | 256° |
| 2026-05-07 01:10 | 32.97217 | -79.76003 | 4024 ft | 113 kts | 256° |
| 2026-05-07 01:10 | 32.97006 | -79.76897 | 3890 ft | 112 kts | 256° |
| 2026-05-07 01:10 | 32.96784 | -79.77797 | 3889 ft | 114 kts | 255° |
| 2026-05-07 01:10 | 32.96535 | -79.78696 | 3787 ft | 115 kts | 254° |
| 2026-05-07 01:11 | 32.96275 | -79.79601 | 3682 ft | 116 kts | 254° |
| 2026-05-07 01:11 | 32.96075 | -79.80519 | 3573 ft | 110 kts | 262° |
| 2026-05-07 01:11 | 32.95869 | -79.81372 | 3521 ft | 109 kts | 262° |
| 2026-05-07 01:11 | 32.95635 | -79.82225 | 3398 ft | 108 kts | 259° |
| 2026-05-07 01:12 | 32.95395 | -79.83068 | 3297 ft | 108 kts | 259° |
| 2026-05-07 01:12 | 32.95153 | -79.83912 | 3191 ft | 108 kts | 258° |
| 2026-05-07 01:12 | 32.94906 | -79.84761 | 3084 ft | 108 kts | 261° |
| 2026-05-07 01:12 | 32.94770 | -79.85652 | 2971 ft | 111 kts | 258° |
| 2026-05-07 01:13 | 32.94722 | -79.86586 | 2798 ft | 115 kts | 266° |
| 2026-05-07 01:13 | 32.94732 | -79.87539 | 2658 ft | 115 kts | 267° |
| 2026-05-07 01:13 | 32.94767 | -79.88493 | 2547 ft | 115 kts | 267° |
| 2026-05-07 01:13 | 32.94768 | -79.89436 | 2463 ft | 112 kts | 263° |
| 2026-05-07 01:14 | 32.94732 | -79.90355 | 2405 ft | 111 kts | 264° |
| 2026-05-07 01:14 | 32.94713 | -79.91250 | 2264 ft | 108 kts | 263° |
| 2026-05-07 01:14 | 32.94688 | -79.92148 | 2070 ft | 109 kts | 263° |
| 2026-05-07 01:14 | 32.94741 | -79.93048 | 2051 ft | 107 kts | 265° |
| 2026-05-07 01:15 | 32.94767 | -79.93919 | 2067 ft | 105 kts | 265° |
| 2026-05-07 01:15 | 32.94790 | -79.94795 | 1983 ft | 106 kts | 264° |
| 2026-05-07 01:15 | 32.94798 | -79.95670 | 1913 ft | 105 kts | 263° |
| 2026-05-07 01:15 | 32.94810 | -79.96526 | 1790 ft | 103 kts | 262° |
| 2026-05-07 01:16 | 32.94803 | -79.97368 | 1644 ft | 99 kts | 260° |
| 2026-05-07 01:16 | 32.94783 | -79.98162 | 1611 ft | 94 kts | 258° |
| 2026-05-07 01:16 | 32.94718 | -79.98929 | 1452 ft | 93 kts | 250° |
| 2026-05-07 01:16 | 32.94537 | -79.99646 | 1382 ft | 87 kts | 244° |
| 2026-05-07 01:17 | 32.94323 | -80.00283 | 1494 ft | 78 kts | 240° |
| 2026-05-07 01:17 | 32.94104 | -80.00861 | 1692 ft | 77 kts | 234° |
| 2026-05-07 01:17 | 32.93771 | -80.01383 | 1488 ft | 84 kts | 224° |
| 2026-05-07 01:17 | 32.93339 | -80.01893 | 1310 ft | 91 kts | 218° |
| 2026-05-07 01:18 | 32.92805 | -80.02352 | 1142 ft | 97 kts | 212° |
| 2026-05-07 01:18 | 32.92212 | -80.02741 | 1000 ft | 96 kts | 206° |
| 2026-05-07 01:18 | 32.91631 | -80.03088 | 847 ft | 91 kts | 207° |
| 2026-05-07 01:18 | 32.91073 | -80.03364 | 803 ft | 80 kts | 199° |
| 2026-05-07 01:19 | 32.90592 | -80.03479 | 676 ft | 64 kts | 187° |
| 2026-05-07 01:19 | 32.90308 | -80.03538 | 482 ft | 61 kts | 188° |
| 2026-05-07 01:19 | 32.89916 | -80.03525 | 212 ft | 16 kts | 72° |
| 2026-05-07 01:19 | 32.89914 | -80.03431 | 79 ft | 6 kts | 58° |
| 2026-05-07 01:20 | 32.89947 | -80.03387 | 95 ft | 9 kts | 60° |
| 2026-05-07 01:20 | 32.89959 | -80.03366 | 64 ft | 2 kts | 60° |
| 2026-05-07 01:20 | 32.89962 | -80.03357 | 47 ft | 0 kts | 60° |